sensor_id;sensor_type;location;lat;lon;timestamp;temperature;humidity
2300;DHT22;1158;48.750;9.078;2022-10-28T00:01:24;15.40;99.90
2300;DHT22;1158;48.750;9.078;2022-10-28T00:03:52;15.40;99.90
2300;DHT22;1158;48.750;9.078;2022-10-28T00:06:21;15.30;99.90
2300;DHT22;1158;48.750;9.078;2022-10-28T00:08:48;15.30;99.90
2300;DHT22;1158;48.750;9.078;2022-10-28T00:11:17;15.20;99.90
2300;DHT22;1158;48.750;9.078;2022-10-28T00:13:45;15.20;99.90
2300;DHT22;1158;48.750;9.078;2022-10-28T00:16:14;15.20;99.90
2300;DHT22;1158;48.750;9.078;2022-10-28T00:18:41;15.10;99.90
2300;DHT22;1158;48.750;9.078;2022-10-28T00:21:11;15.10;99.90
2300;DHT22;1158;48.750;9.078;2022-10-28T00:23:38;15.10;99.90
2300;DHT22;1158;48.750;9.078;2022-10-28T00:26:07;15.10;99.90
2300;DHT22;1158;48.750;9.078;2022-10-28T00:28:34;15.10;99.90
2300;DHT22;1158;48.750;9.078;2022-10-28T00:31:07;15.00;99.90
2300;DHT22;1158;48.750;9.078;2022-10-28T00:33:34;15.00;99.90
2300;DHT22;1158;48.750;9.078;2022-10-28T00:36:11;15.00;99.90
2300;DHT22;1158;48.750;9.078;2022-10-28T00:38:39;15.10;99.90
2300;DHT22;1158;48.750;9.078;2022-10-28T00:41:07;15.10;99.90
2300;DHT22;1158;48.750;9.078;2022-10-28T00:43:36;15.20;99.90
2300;DHT22;1158;48.750;9.078;2022-10-28T00:46:09;15.30;99.90
2300;DHT22;1158;48.750;9.078;2022-10-28T00:48:38;15.40;99.90
2300;DHT22;1158;48.750;9.078;2022-10-28T00:51:07;15.40;99.90
2300;DHT22;1158;48.750;9.078;2022-10-28T00:53:34;15.40;99.90
2300;DHT22;1158;48.750;9.078;2022-10-28T00:56:02;15.40;99.90
2300;DHT22;1158;48.750;9.078;2022-10-28T00:58:29;15.30;99.90
2300;DHT22;1158;48.750;9.078;2022-10-28T01:00:56;15.30;99.90
2300;DHT22;1158;48.750;9.078;2022-10-28T01:03:25;15.30;99.90
2300;DHT22;1158;48.750;9.078;2022-10-28T01:05:52;15.30;99.90
2300;DHT22;1158;48.750;9.078;2022-10-28T01:08:22;15.30;99.90
2300;DHT22;1158;48.750;9.078;2022-10-28T01:11:11;15.20;99.90
2300;DHT22;1158;48.750;9.078;2022-10-28T01:13:51;15.20;99.90
2300;DHT22;1158;48.750;9.078;2022-10-28T01:16:25;15.30;99.90
2300;DHT22;1158;48.750;9.078;2022-10-28T01:19:05;15.20;99.90
2300;DHT22;1158;48.750;9.078;2022-10-28T01:22:07;15.20;99.90
2300;DHT22;1158;48.750;9.078;2022-10-28T01:25:06;15.10;99.90
2300;DHT22;1158;48.750;9.078;2022-10-28T01:27:54;15.00;99.90
2300;DHT22;1158;48.750;9.078;2022-10-28T01:30:26;15.00;99.90
2300;DHT22;1158;48.750;9.078;2022-10-28T01:33:01;15.00;99.90
2300;DHT22;1158;48.750;9.078;2022-10-28T01:35:33;15.00;99.90
2300;DHT22;1158;48.750;9.078;2022-10-28T01:38:20;15.00;99.90
2300;DHT22;1158;48.750;9.078;2022-10-28T01:40:53;14.90;99.90
2300;DHT22;1158;48.750;9.078;2022-10-28T01:43:25;14.90;99.90
2300;DHT22;1158;48.750;9.078;2022-10-28T01:45:57;14.80;99.90
2300;DHT22;1158;48.750;9.078;2022-10-28T01:48:29;14.70;99.90
2300;DHT22;1158;48.750;9.078;2022-10-28T01:51:02;14.60;99.90
2300;DHT22;1158;48.750;9.078;2022-10-28T01:53:34;14.60;99.90
2300;DHT22;1158;48.750;9.078;2022-10-28T01:56:05;14.60;99.90
2300;DHT22;1158;48.750;9.078;2022-10-28T01:58:35;14.60;99.90
2300;DHT22;1158;48.750;9.078;2022-10-28T02:01:04;14.60;99.90
2300;DHT22;1158;48.750;9.078;2022-10-28T02:03:33;14.60;99.90
2300;DHT22;1158;48.750;9.078;2022-10-28T02:06:01;14.60;99.90
2300;DHT22;1158;48.750;9.078;2022-10-28T02:08:40;14.50;99.90
2300;DHT22;1158;48.750;9.078;2022-10-28T02:11:27;14.60;99.90
2300;DHT22;1158;48.750;9.078;2022-10-28T02:14:00;14.60;99.90
2300;DHT22;1158;48.750;9.078;2022-10-28T02:16:37;14.60;99.90
2300;DHT22;1158;48.750;9.078;2022-10-28T02:19:12;14.50;99.90
2300;DHT22;1158;48.750;9.078;2022-10-28T02:21:48;14.40;99.90
2300;DHT22;1158;48.750;9.078;2022-10-28T02:24:18;14.20;99.90
2300;DHT22;1158;48.750;9.078;2022-10-28T02:26:50;14.10;99.90
2300;DHT22;1158;48.750;9.078;2022-10-28T02:29:24;14.10;99.90
2300;DHT22;1158;48.750;9.078;2022-10-28T02:31:56;14.00;99.90
2300;DHT22;1158;48.750;9.078;2022-10-28T02:34:27;13.90;99.90
2300;DHT22;1158;48.750;9.078;2022-10-28T02:36:57;13.80;99.90
2300;DHT22;1158;48.750;9.078;2022-10-28T02:39:27;13.80;99.90
2300;DHT22;1158;48.750;9.078;2022-10-28T02:41:57;13.80;99.90
2300;DHT22;1158;48.750;9.078;2022-10-28T02:44:29;13.80;99.90
2300;DHT22;1158;48.750;9.078;2022-10-28T02:47:00;14.00;99.90
2300;DHT22;1158;48.750;9.078;2022-10-28T02:49:29;13.80;99.90
2300;DHT22;1158;48.750;9.078;2022-10-28T02:51:59;13.70;99.90
2300;DHT22;1158;48.750;9.078;2022-10-28T02:54:31;13.70;99.90
2300;DHT22;1158;48.750;9.078;2022-10-28T02:57:04;13.60;99.90
2300;DHT22;1158;48.750;9.078;2022-10-28T02:59:32;13.60;99.90
2300;DHT22;1158;48.750;9.078;2022-10-28T03:01:58;13.50;99.90
2300;DHT22;1158;48.750;9.078;2022-10-28T03:04:25;13.40;99.90
2300;DHT22;1158;48.750;9.078;2022-10-28T03:06:53;13.40;99.90
2300;DHT22;1158;48.750;9.078;2022-10-28T03:09:20;13.30;99.90
2300;DHT22;1158;48.750;9.078;2022-10-28T03:11:46;13.30;99.90
2300;DHT22;1158;48.750;9.078;2022-10-28T03:14:13;13.30;99.90
2300;DHT22;1158;48.750;9.078;2022-10-28T03:16:40;13.30;99.90
2300;DHT22;1158;48.750;9.078;2022-10-28T03:19:06;13.50;99.90
2300;DHT22;1158;48.750;9.078;2022-10-28T03:21:33;13.60;99.90
2300;DHT22;1158;48.750;9.078;2022-10-28T03:24:01;13.70;99.90
2300;DHT22;1158;48.750;9.078;2022-10-28T03:26:28;13.80;99.90
2300;DHT22;1158;48.750;9.078;2022-10-28T03:28:54;14.00;99.90
2300;DHT22;1158;48.750;9.078;2022-10-28T03:31:21;14.00;99.90
2300;DHT22;1158;48.750;9.078;2022-10-28T03:33:48;14.20;99.90
2300;DHT22;1158;48.750;9.078;2022-10-28T03:36:14;14.30;99.90
2300;DHT22;1158;48.750;9.078;2022-10-28T03:38:41;14.40;99.90
2300;DHT22;1158;48.750;9.078;2022-10-28T03:41:09;14.60;99.90
2300;DHT22;1158;48.750;9.078;2022-10-28T03:43:36;14.70;99.90
2300;DHT22;1158;48.750;9.078;2022-10-28T03:46:03;14.70;99.90
2300;DHT22;1158;48.750;9.078;2022-10-28T03:48:29;14.70;99.90
2300;DHT22;1158;48.750;9.078;2022-10-28T03:50:56;14.80;99.90
2300;DHT22;1158;48.750;9.078;2022-10-28T03:53:23;14.80;99.90
2300;DHT22;1158;48.750;9.078;2022-10-28T03:55:52;14.80;99.90
2300;DHT22;1158;48.750;9.078;2022-10-28T03:58:21;14.70;99.90
2300;DHT22;1158;48.750;9.078;2022-10-28T04:00:48;14.60;99.90
2300;DHT22;1158;48.750;9.078;2022-10-28T04:03:15;14.50;99.90
2300;DHT22;1158;48.750;9.078;2022-10-28T04:05:46;14.40;99.90
2300;DHT22;1158;48.750;9.078;2022-10-28T04:08:16;14.30;99.90
2300;DHT22;1158;48.750;9.078;2022-10-28T04:10:43;14.20;99.90
2300;DHT22;1158;48.750;9.078;2022-10-28T04:13:11;14.20;99.90
2300;DHT22;1158;48.750;9.078;2022-10-28T04:15:39;14.10;99.90
2300;DHT22;1158;48.750;9.078;2022-10-28T04:18:06;14.00;99.90
2300;DHT22;1158;48.750;9.078;2022-10-28T04:20:33;14.00;99.90
2300;DHT22;1158;48.750;9.078;2022-10-28T04:23:00;14.00;99.90
2300;DHT22;1158;48.750;9.078;2022-10-28T04:25:27;14.10;99.90
2300;DHT22;1158;48.750;9.078;2022-10-28T04:27:54;14.10;99.90
2300;DHT22;1158;48.750;9.078;2022-10-28T04:30:21;14.30;99.90
2300;DHT22;1158;48.750;9.078;2022-10-28T04:32:49;14.40;99.90
2300;DHT22;1158;48.750;9.078;2022-10-28T04:35:16;14.50;99.90
2300;DHT22;1158;48.750;9.078;2022-10-28T04:37:42;14.70;99.90
2300;DHT22;1158;48.750;9.078;2022-10-28T04:40:10;14.90;99.90
2300;DHT22;1158;48.750;9.078;2022-10-28T04:42:37;15.00;99.90
2300;DHT22;1158;48.750;9.078;2022-10-28T04:45:04;15.20;99.90
2300;DHT22;1158;48.750;9.078;2022-10-28T04:47:31;15.40;99.90
2300;DHT22;1158;48.750;9.078;2022-10-28T04:49:59;15.50;99.90
2300;DHT22;1158;48.750;9.078;2022-10-28T04:52:26;15.70;99.90
2300;DHT22;1158;48.750;9.078;2022-10-28T04:54:53;15.70;99.90
2300;DHT22;1158;48.750;9.078;2022-10-28T04:57:20;15.90;99.90
2300;DHT22;1158;48.750;9.078;2022-10-28T04:59:46;15.80;99.90
2300;DHT22;1158;48.750;9.078;2022-10-28T05:02:13;15.80;99.90
2300;DHT22;1158;48.750;9.078;2022-10-28T05:04:40;15.70;99.90
2300;DHT22;1158;48.750;9.078;2022-10-28T05:07:08;15.60;99.90
2300;DHT22;1158;48.750;9.078;2022-10-28T05:09:35;15.60;99.90
2300;DHT22;1158;48.750;9.078;2022-10-28T05:12:01;15.60;99.90
2300;DHT22;1158;48.750;9.078;2022-10-28T05:14:28;15.60;99.90
2300;DHT22;1158;48.750;9.078;2022-10-28T05:16:55;15.70;99.90
2300;DHT22;1158;48.750;9.078;2022-10-28T05:19:21;15.80;99.90
2300;DHT22;1158;48.750;9.078;2022-10-28T05:21:48;15.70;99.90
2300;DHT22;1158;48.750;9.078;2022-10-28T05:24:16;15.60;99.90
2300;DHT22;1158;48.750;9.078;2022-10-28T05:26:43;15.70;99.90
2300;DHT22;1158;48.750;9.078;2022-10-28T05:29:09;15.70;99.90
2300;DHT22;1158;48.750;9.078;2022-10-28T05:31:36;15.70;99.90
2300;DHT22;1158;48.750;9.078;2022-10-28T05:34:03;15.70;99.90
2300;DHT22;1158;48.750;9.078;2022-10-28T05:36:29;15.70;99.90
2300;DHT22;1158;48.750;9.078;2022-10-28T05:38:56;15.70;99.90
2300;DHT22;1158;48.750;9.078;2022-10-28T05:41:24;15.70;99.90
2300;DHT22;1158;48.750;9.078;2022-10-28T05:43:51;15.70;99.90
2300;DHT22;1158;48.750;9.078;2022-10-28T05:46:18;15.60;99.90
2300;DHT22;1158;48.750;9.078;2022-10-28T05:48:46;15.60;99.90
2300;DHT22;1158;48.750;9.078;2022-10-28T05:51:13;15.60;99.90
2300;DHT22;1158;48.750;9.078;2022-10-28T05:53:40;15.70;99.90
2300;DHT22;1158;48.750;9.078;2022-10-28T05:56:08;15.60;99.90
2300;DHT22;1158;48.750;9.078;2022-10-28T05:58:36;15.80;99.90
2300;DHT22;1158;48.750;9.078;2022-10-28T06:01:05;16.00;99.90
2300;DHT22;1158;48.750;9.078;2022-10-28T06:03:32;16.00;99.90
2300;DHT22;1158;48.750;9.078;2022-10-28T06:06:00;16.20;99.90
2300;DHT22;1158;48.750;9.078;2022-10-28T06:08:27;16.30;99.90
2300;DHT22;1158;48.750;9.078;2022-10-28T06:10:55;16.50;99.90
2300;DHT22;1158;48.750;9.078;2022-10-28T06:13:21;16.60;99.90
2300;DHT22;1158;48.750;9.078;2022-10-28T06:15:53;16.70;99.90
2300;DHT22;1158;48.750;9.078;2022-10-28T06:18:21;16.70;99.90
2300;DHT22;1158;48.750;9.078;2022-10-28T06:20:52;16.70;99.90
2300;DHT22;1158;48.750;9.078;2022-10-28T06:23:19;16.80;99.90
2300;DHT22;1158;48.750;9.078;2022-10-28T06:25:46;17.00;99.90
2300;DHT22;1158;48.750;9.078;2022-10-28T06:28:13;17.10;99.90
2300;DHT22;1158;48.750;9.078;2022-10-28T06:30:39;17.00;99.90
2300;DHT22;1158;48.750;9.078;2022-10-28T06:33:08;17.10;99.90
2300;DHT22;1158;48.750;9.078;2022-10-28T06:35:34;17.10;99.90
2300;DHT22;1158;48.750;9.078;2022-10-28T06:38:01;17.10;99.90
2300;DHT22;1158;48.750;9.078;2022-10-28T06:40:28;17.10;99.90
2300;DHT22;1158;48.750;9.078;2022-10-28T06:42:58;17.10;99.90
2300;DHT22;1158;48.750;9.078;2022-10-28T06:45:25;17.20;99.90
2300;DHT22;1158;48.750;9.078;2022-10-28T06:47:54;17.20;99.90
2300;DHT22;1158;48.750;9.078;2022-10-28T06:50:23;17.30;99.90
2300;DHT22;1158;48.750;9.078;2022-10-28T06:52:50;17.20;99.90
2300;DHT22;1158;48.750;9.078;2022-10-28T06:55:17;17.20;99.90
2300;DHT22;1158;48.750;9.078;2022-10-28T06:57:43;17.10;99.90
2300;DHT22;1158;48.750;9.078;2022-10-28T07:00:11;17.10;99.90
2300;DHT22;1158;48.750;9.078;2022-10-28T07:02:38;17.10;99.90
2300;DHT22;1158;48.750;9.078;2022-10-28T07:05:05;17.10;99.90
2300;DHT22;1158;48.750;9.078;2022-10-28T07:07:34;17.00;99.90
2300;DHT22;1158;48.750;9.078;2022-10-28T07:10:02;17.00;99.90
2300;DHT22;1158;48.750;9.078;2022-10-28T07:12:28;16.90;99.90
2300;DHT22;1158;48.750;9.078;2022-10-28T07:14:55;17.00;99.90
2300;DHT22;1158;48.750;9.078;2022-10-28T07:17:22;17.00;99.90
2300;DHT22;1158;48.750;9.078;2022-10-28T07:19:48;17.00;99.90
2300;DHT22;1158;48.750;9.078;2022-10-28T07:22:15;17.20;99.90
2300;DHT22;1158;48.750;9.078;2022-10-28T07:24:43;17.30;99.90
2300;DHT22;1158;48.750;9.078;2022-10-28T07:27:10;17.50;99.90
2300;DHT22;1158;48.750;9.078;2022-10-28T07:29:37;17.70;99.90
2300;DHT22;1158;48.750;9.078;2022-10-28T07:32:04;18.00;99.90
2300;DHT22;1158;48.750;9.078;2022-10-28T07:34:31;18.30;99.90
2300;DHT22;1158;48.750;9.078;2022-10-28T07:36:57;18.20;99.90
2300;DHT22;1158;48.750;9.078;2022-10-28T07:39:24;18.10;99.90
2300;DHT22;1158;48.750;9.078;2022-10-28T07:41:52;18.10;99.90
2300;DHT22;1158;48.750;9.078;2022-10-28T07:44:19;18.10;99.90
2300;DHT22;1158;48.750;9.078;2022-10-28T07:46:46;18.00;99.90
2300;DHT22;1158;48.750;9.078;2022-10-28T07:49:13;18.10;99.90
2300;DHT22;1158;48.750;9.078;2022-10-28T07:51:39;18.20;99.90
2300;DHT22;1158;48.750;9.078;2022-10-28T07:54:06;18.20;99.90
2300;DHT22;1158;48.750;9.078;2022-10-28T07:56:33;18.20;99.90
2300;DHT22;1158;48.750;9.078;2022-10-28T07:59:01;18.20;99.90
2300;DHT22;1158;48.750;9.078;2022-10-28T08:01:28;18.20;99.90
2300;DHT22;1158;48.750;9.078;2022-10-28T08:03:55;18.20;99.90
2300;DHT22;1158;48.750;9.078;2022-10-28T08:06:22;18.20;99.90
2300;DHT22;1158;48.750;9.078;2022-10-28T08:08:52;18.40;99.90
2300;DHT22;1158;48.750;9.078;2022-10-28T08:11:20;18.40;99.90
2300;DHT22;1158;48.750;9.078;2022-10-28T08:13:48;18.40;99.90
2300;DHT22;1158;48.750;9.078;2022-10-28T08:16:16;18.40;99.90
2300;DHT22;1158;48.750;9.078;2022-10-28T08:18:43;18.40;99.90
2300;DHT22;1158;48.750;9.078;2022-10-28T08:21:11;18.30;99.90
2300;DHT22;1158;48.750;9.078;2022-10-28T08:23:39;18.30;99.90
2300;DHT22;1158;48.750;9.078;2022-10-28T08:26:06;18.30;99.90
2300;DHT22;1158;48.750;9.078;2022-10-28T08:28:33;18.30;99.90
2300;DHT22;1158;48.750;9.078;2022-10-28T08:31:00;18.40;99.90
2300;DHT22;1158;48.750;9.078;2022-10-28T08:33:30;18.50;99.90
2300;DHT22;1158;48.750;9.078;2022-10-28T08:35:57;18.50;99.90
2300;DHT22;1158;48.750;9.078;2022-10-28T08:38:24;18.50;99.90
2300;DHT22;1158;48.750;9.078;2022-10-28T08:40:57;18.60;99.90
2300;DHT22;1158;48.750;9.078;2022-10-28T08:43:38;18.70;99.90
2300;DHT22;1158;48.750;9.078;2022-10-28T08:46:16;18.80;99.90
2300;DHT22;1158;48.750;9.078;2022-10-28T08:48:47;18.90;99.90
2300;DHT22;1158;48.750;9.078;2022-10-28T08:51:17;19.00;99.90
2300;DHT22;1158;48.750;9.078;2022-10-28T08:53:47;19.10;99.90
2300;DHT22;1158;48.750;9.078;2022-10-28T08:56:26;19.30;99.90
2300;DHT22;1158;48.750;9.078;2022-10-28T08:58:56;19.50;99.90
2300;DHT22;1158;48.750;9.078;2022-10-28T09:01:31;19.70;99.90
2300;DHT22;1158;48.750;9.078;2022-10-28T09:04:06;20.00;99.90
2300;DHT22;1158;48.750;9.078;2022-10-28T09:06:36;20.20;99.90
2300;DHT22;1158;48.750;9.078;2022-10-28T09:09:03;20.30;99.90
2300;DHT22;1158;48.750;9.078;2022-10-28T09:11:44;20.40;99.90
2300;DHT22;1158;48.750;9.078;2022-10-28T09:14:45;20.50;99.90
2300;DHT22;1158;48.750;9.078;2022-10-28T09:17:19;20.60;99.90
2300;DHT22;1158;48.750;9.078;2022-10-28T09:19:51;20.60;99.90
2300;DHT22;1158;48.750;9.078;2022-10-28T09:22:23;20.40;99.90
2300;DHT22;1158;48.750;9.078;2022-10-28T09:24:54;20.30;99.90
2300;DHT22;1158;48.750;9.078;2022-10-28T09:27:40;20.10;99.90
2300;DHT22;1158;48.750;9.078;2022-10-28T09:30:25;19.90;99.90
2300;DHT22;1158;48.750;9.078;2022-10-28T09:33:02;19.40;99.90
2300;DHT22;1158;48.750;9.078;2022-10-28T09:35:38;19.40;99.90
2300;DHT22;1158;48.750;9.078;2022-10-28T09:38:13;19.40;99.90
2300;DHT22;1158;48.750;9.078;2022-10-28T09:40:45;19.60;99.90
2300;DHT22;1158;48.750;9.078;2022-10-28T09:43:19;20.00;99.90
2300;DHT22;1158;48.750;9.078;2022-10-28T09:45:50;20.30;99.90
2300;DHT22;1158;48.750;9.078;2022-10-28T09:48:21;20.60;99.90
2300;DHT22;1158;48.750;9.078;2022-10-28T09:50:52;20.90;99.90
2300;DHT22;1158;48.750;9.078;2022-10-28T09:53:31;21.10;99.90
2300;DHT22;1158;48.750;9.078;2022-10-28T09:55:59;21.30;99.90
2300;DHT22;1158;48.750;9.078;2022-10-28T09:58:26;21.70;99.90
2300;DHT22;1158;48.750;9.078;2022-10-28T10:00:53;22.00;99.90
2300;DHT22;1158;48.750;9.078;2022-10-28T10:03:20;22.20;99.90
2300;DHT22;1158;48.750;9.078;2022-10-28T10:05:48;22.40;99.90
2300;DHT22;1158;48.750;9.078;2022-10-28T10:08:19;22.40;99.90
2300;DHT22;1158;48.750;9.078;2022-10-28T10:10:49;22.40;99.90
2300;DHT22;1158;48.750;9.078;2022-10-28T10:13:19;22.20;99.90
2300;DHT22;1158;48.750;9.078;2022-10-28T10:15:51;22.10;99.90
2300;DHT22;1158;48.750;9.078;2022-10-28T10:18:22;22.20;99.90
2300;DHT22;1158;48.750;9.078;2022-10-28T10:20:51;22.10;99.90
2300;DHT22;1158;48.750;9.078;2022-10-28T10:23:27;22.10;99.90
2300;DHT22;1158;48.750;9.078;2022-10-28T10:25:57;21.80;99.90
2300;DHT22;1158;48.750;9.078;2022-10-28T10:28:25;21.60;99.90
2300;DHT22;1158;48.750;9.078;2022-10-28T10:30:53;21.60;99.90
2300;DHT22;1158;48.750;9.078;2022-10-28T10:33:23;21.60;99.90
2300;DHT22;1158;48.750;9.078;2022-10-28T10:35:55;21.50;99.90
2300;DHT22;1158;48.750;9.078;2022-10-28T10:38:24;21.50;99.90
2300;DHT22;1158;48.750;9.078;2022-10-28T10:40:51;21.70;99.90
2300;DHT22;1158;48.750;9.078;2022-10-28T10:43:24;21.70;99.90
2300;DHT22;1158;48.750;9.078;2022-10-28T10:46:00;21.70;99.90
2300;DHT22;1158;48.750;9.078;2022-10-28T10:48:27;21.80;99.90
2300;DHT22;1158;48.750;9.078;2022-10-28T10:50:54;21.80;99.90
2300;DHT22;1158;48.750;9.078;2022-10-28T10:53:27;21.80;99.90
2300;DHT22;1158;48.750;9.078;2022-10-28T10:55:57;21.90;99.90
2300;DHT22;1158;48.750;9.078;2022-10-28T10:58:27;21.90;99.90
2300;DHT22;1158;48.750;9.078;2022-10-28T11:00:57;22.00;99.90
2300;DHT22;1158;48.750;9.078;2022-10-28T11:03:27;22.10;99.90
2300;DHT22;1158;48.750;9.078;2022-10-28T11:05:57;22.20;99.90
2300;DHT22;1158;48.750;9.078;2022-10-28T11:08:31;22.20;99.90
2300;DHT22;1158;48.750;9.078;2022-10-28T11:11:07;22.30;99.90
2300;DHT22;1158;48.750;9.078;2022-10-28T11:13:37;22.40;99.90
2300;DHT22;1158;48.750;9.078;2022-10-28T11:16:05;22.40;99.90
2300;DHT22;1158;48.750;9.078;2022-10-28T11:18:40;22.50;99.90
2300;DHT22;1158;48.750;9.078;2022-10-28T11:21:18;22.50;99.90
2300;DHT22;1158;48.750;9.078;2022-10-28T11:24:01;22.50;99.90
2300;DHT22;1158;48.750;9.078;2022-10-28T11:26:36;22.50;99.90
2300;DHT22;1158;48.750;9.078;2022-10-28T11:29:08;22.40;99.90
2300;DHT22;1158;48.750;9.078;2022-10-28T11:31:58;22.40;99.90
2300;DHT22;1158;48.750;9.078;2022-10-28T11:34:41;22.40;99.90
2300;DHT22;1158;48.750;9.078;2022-10-28T11:37:14;22.30;99.90
2300;DHT22;1158;48.750;9.078;2022-10-28T11:39:52;22.20;99.90
2300;DHT22;1158;48.750;9.078;2022-10-28T11:42:30;21.90;99.90
2300;DHT22;1158;48.750;9.078;2022-10-28T11:45:04;21.70;99.90
2300;DHT22;1158;48.750;9.078;2022-10-28T11:47:49;21.60;99.90
2300;DHT22;1158;48.750;9.078;2022-10-28T11:50:40;21.60;99.90
2300;DHT22;1158;48.750;9.078;2022-10-28T11:53:28;21.60;99.90
2300;DHT22;1158;48.750;9.078;2022-10-28T11:56:05;22.00;99.90
2300;DHT22;1158;48.750;9.078;2022-10-28T11:58:40;22.50;99.90
2300;DHT22;1158;48.750;9.078;2022-10-28T12:01:19;23.00;99.90
2300;DHT22;1158;48.750;9.078;2022-10-28T12:04:01;23.20;99.90
2300;DHT22;1158;48.750;9.078;2022-10-28T12:06:47;23.30;99.90
2300;DHT22;1158;48.750;9.078;2022-10-28T12:09:22;23.40;99.90
2300;DHT22;1158;48.750;9.078;2022-10-28T12:12:07;23.60;99.90
2300;DHT22;1158;48.750;9.078;2022-10-28T12:14:41;23.90;99.90
2300;DHT22;1158;48.750;9.078;2022-10-28T12:17:16;24.50;99.90
2300;DHT22;1158;48.750;9.078;2022-10-28T12:19:47;25.20;99.90
2300;DHT22;1158;48.750;9.078;2022-10-28T12:22:20;25.90;99.90
2300;DHT22;1158;48.750;9.078;2022-10-28T12:24:50;26.30;99.90
2300;DHT22;1158;48.750;9.078;2022-10-28T12:27:22;26.50;99.90
2300;DHT22;1158;48.750;9.078;2022-10-28T12:29:53;26.80;99.90
2300;DHT22;1158;48.750;9.078;2022-10-28T12:32:26;27.20;99.90
2300;DHT22;1158;48.750;9.078;2022-10-28T12:34:58;27.90;99.90
2300;DHT22;1158;48.750;9.078;2022-10-28T12:37:31;27.70;99.60
2300;DHT22;1158;48.750;9.078;2022-10-28T12:40:04;27.20;99.20
2300;DHT22;1158;48.750;9.078;2022-10-28T12:42:37;26.90;99.20
2300;DHT22;1158;48.750;9.078;2022-10-28T12:45:10;26.80;99.70
2300;DHT22;1158;48.750;9.078;2022-10-28T12:47:42;26.70;99.30
2300;DHT22;1158;48.750;9.078;2022-10-28T12:50:16;26.80;99.30
2300;DHT22;1158;48.750;9.078;2022-10-28T12:52:51;27.10;99.50
2300;DHT22;1158;48.750;9.078;2022-10-28T12:55:34;27.30;98.30
2300;DHT22;1158;48.750;9.078;2022-10-28T12:58:08;27.80;98.80
2300;DHT22;1158;48.750;9.078;2022-10-28T13:00:42;28.10;99.20
2300;DHT22;1158;48.750;9.078;2022-10-28T13:03:11;27.90;97.60
2300;DHT22;1158;48.750;9.078;2022-10-28T13:05:41;27.10;98.20
2300;DHT22;1158;48.750;9.078;2022-10-28T13:08:38;26.50;98.40
2300;DHT22;1158;48.750;9.078;2022-10-28T13:11:36;26.30;99.00
2300;DHT22;1158;48.750;9.078;2022-10-28T13:14:16;27.20;99.20
2300;DHT22;1158;48.750;9.078;2022-10-28T13:17:07;27.70;97.90
2300;DHT22;1158;48.750;9.078;2022-10-28T13:19:55;28.40;98.20
2300;DHT22;1158;48.750;9.078;2022-10-28T13:22:38;28.70;98.00
2300;DHT22;1158;48.750;9.078;2022-10-28T13:25:20;29.30;97.30
2300;DHT22;1158;48.750;9.078;2022-10-28T13:27:55;29.70;95.90
2300;DHT22;1158;48.750;9.078;2022-10-28T13:30:23;29.70;96.20
2300;DHT22;1158;48.750;9.078;2022-10-28T13:32:59;29.50;96.10
2300;DHT22;1158;48.750;9.078;2022-10-28T13:35:27;28.90;96.30
2300;DHT22;1158;48.750;9.078;2022-10-28T13:37:55;28.30;96.90
2300;DHT22;1158;48.750;9.078;2022-10-28T13:43:55;28.50;96.50
2300;DHT22;1158;48.750;9.078;2022-10-28T13:47:04;28.00;97.20
2300;DHT22;1158;48.750;9.078;2022-10-28T13:56:36;26.70;98.70
2300;DHT22;1158;48.750;9.078;2022-10-28T13:59:22;26.40;99.90
2300;DHT22;1158;48.750;9.078;2022-10-28T14:01:55;26.30;99.60
2300;DHT22;1158;48.750;9.078;2022-10-28T14:04:29;26.50;99.90
2300;DHT22;1158;48.750;9.078;2022-10-28T14:07:04;27.80;99.60
2300;DHT22;1158;48.750;9.078;2022-10-28T14:09:33;28.80;98.60
2300;DHT22;1158;48.750;9.078;2022-10-28T14:12:23;28.70;98.80
2300;DHT22;1158;48.750;9.078;2022-10-28T14:15:15;28.40;98.80
2300;DHT22;1158;48.750;9.078;2022-10-28T14:17:46;28.20;98.60
2300;DHT22;1158;48.750;9.078;2022-10-28T14:20:31;28.10;99.40
2300;DHT22;1158;48.750;9.078;2022-10-28T14:22:59;28.30;98.30
2300;DHT22;1158;48.750;9.078;2022-10-28T14:28:51;28.00;99.90
2300;DHT22;1158;48.750;9.078;2022-10-28T14:31:39;27.40;99.90
2300;DHT22;1158;48.750;9.078;2022-10-28T14:34:40;26.90;99.90
2300;DHT22;1158;48.750;9.078;2022-10-28T14:37:31;26.30;99.90
2300;DHT22;1158;48.750;9.078;2022-10-28T14:40:21;25.60;99.90
2300;DHT22;1158;48.750;9.078;2022-10-28T14:43:00;25.20;99.90
2300;DHT22;1158;48.750;9.078;2022-10-28T14:45:35;25.10;99.90
2300;DHT22;1158;48.750;9.078;2022-10-28T14:48:35;24.90;99.90
2300;DHT22;1158;48.750;9.078;2022-10-28T14:51:10;24.80;99.90
2300;DHT22;1158;48.750;9.078;2022-10-28T14:53:40;24.60;99.90
2300;DHT22;1158;48.750;9.078;2022-10-28T14:56:10;24.30;99.90
2300;DHT22;1158;48.750;9.078;2022-10-28T14:58:39;24.20;99.90
2300;DHT22;1158;48.750;9.078;2022-10-28T15:01:20;24.10;99.90
2300;DHT22;1158;48.750;9.078;2022-10-28T15:03:50;23.90;99.90
2300;DHT22;1158;48.750;9.078;2022-10-28T15:06:29;23.80;99.90
2300;DHT22;1158;48.750;9.078;2022-10-28T15:09:14;23.60;99.90
2300;DHT22;1158;48.750;9.078;2022-10-28T15:11:43;23.50;99.90
2300;DHT22;1158;48.750;9.078;2022-10-28T15:14:22;23.40;99.90
2300;DHT22;1158;48.750;9.078;2022-10-28T15:16:49;23.40;99.90
2300;DHT22;1158;48.750;9.078;2022-10-28T15:19:18;23.30;99.90
2300;DHT22;1158;48.750;9.078;2022-10-28T15:21:59;23.20;99.90
2300;DHT22;1158;48.750;9.078;2022-10-28T15:24:28;23.00;99.90
2300;DHT22;1158;48.750;9.078;2022-10-28T15:26:55;22.90;99.90
2300;DHT22;1158;48.750;9.078;2022-10-28T15:29:23;22.80;99.90
2300;DHT22;1158;48.750;9.078;2022-10-28T15:32:09;22.70;99.90
2300;DHT22;1158;48.750;9.078;2022-10-28T15:34:38;22.70;99.90
2300;DHT22;1158;48.750;9.078;2022-10-28T15:37:05;22.50;99.90
2300;DHT22;1158;48.750;9.078;2022-10-28T15:39:34;22.50;99.90
2300;DHT22;1158;48.750;9.078;2022-10-28T15:42:01;22.50;99.90
2300;DHT22;1158;48.750;9.078;2022-10-28T15:44:35;22.40;99.90
2300;DHT22;1158;48.750;9.078;2022-10-28T15:47:22;22.40;99.90
2300;DHT22;1158;48.750;9.078;2022-10-28T15:50:00;22.40;99.90
2300;DHT22;1158;48.750;9.078;2022-10-28T15:52:39;22.30;99.90
2300;DHT22;1158;48.750;9.078;2022-10-28T15:58:02;22.10;99.90
2300;DHT22;1158;48.750;9.078;2022-10-28T16:00:51;21.90;99.90
2300;DHT22;1158;48.750;9.078;2022-10-28T16:03:24;21.70;99.90
2300;DHT22;1158;48.750;9.078;2022-10-28T16:05:52;21.50;99.90
2300;DHT22;1158;48.750;9.078;2022-10-28T16:08:23;21.30;99.90
2300;DHT22;1158;48.750;9.078;2022-10-28T16:10:53;21.10;99.90
2300;DHT22;1158;48.750;9.078;2022-10-28T16:13:31;21.20;99.90
2300;DHT22;1158;48.750;9.078;2022-10-28T16:16:06;21.10;99.90
2300;DHT22;1158;48.750;9.078;2022-10-28T16:18:39;20.90;99.90
2300;DHT22;1158;48.750;9.078;2022-10-28T16:21:06;20.90;99.90
2300;DHT22;1158;48.750;9.078;2022-10-28T16:23:36;20.80;99.90
2300;DHT22;1158;48.750;9.078;2022-10-28T16:26:04;20.70;99.90
2300;DHT22;1158;48.750;9.078;2022-10-28T16:28:32;20.60;99.90
2300;DHT22;1158;48.750;9.078;2022-10-28T16:31:00;20.40;99.90
2300;DHT22;1158;48.750;9.078;2022-10-28T16:33:32;20.20;99.90
2300;DHT22;1158;48.750;9.078;2022-10-28T16:35:59;20.00;99.90
2300;DHT22;1158;48.750;9.078;2022-10-28T16:38:28;19.90;99.90
2300;DHT22;1158;48.750;9.078;2022-10-28T16:40:55;19.80;99.90
2300;DHT22;1158;48.750;9.078;2022-10-28T16:43:23;19.60;99.90
2300;DHT22;1158;48.750;9.078;2022-10-28T16:45:53;19.50;99.90
2300;DHT22;1158;48.750;9.078;2022-10-28T16:48:22;19.50;99.90